sensor_id;sensor_type;location;lat;lon;timestamp;P1;durP1;ratioP1;P2;durP2;ratioP2
2522;SDS011;1272;53.332;9.860;2023-10-08T00:00:46;4.03;;;2.53;;
2522;SDS011;1272;53.332;9.860;2023-10-08T00:03:15;3.93;;;2.70;;
2522;SDS011;1272;53.332;9.860;2023-10-08T00:05:45;2.50;;;2.23;;
2522;SDS011;1272;53.332;9.860;2023-10-08T00:08:11;2.77;;;2.13;;
2522;SDS011;1272;53.332;9.860;2023-10-08T00:10:40;4.17;;;2.60;;
2522;SDS011;1272;53.332;9.860;2023-10-08T00:13:13;2.83;;;1.97;;
2522;SDS011;1272;53.332;9.860;2023-10-08T00:15:41;2.07;;;1.80;;
2522;SDS011;1272;53.332;9.860;2023-10-08T00:20:58;4.07;;;2.30;;
2522;SDS011;1272;53.332;9.860;2023-10-08T00:23:45;2.50;;;1.73;;
2522;SDS011;1272;53.332;9.860;2023-10-08T00:26:21;3.37;;;2.07;;
2522;SDS011;1272;53.332;9.860;2023-10-08T00:29:04;3.27;;;1.87;;
2522;SDS011;1272;53.332;9.860;2023-10-08T00:31:46;3.87;;;2.67;;
2522;SDS011;1272;53.332;9.860;2023-10-08T00:34:17;3.67;;;2.17;;
2522;SDS011;1272;53.332;9.860;2023-10-08T00:36:47;3.23;;;2.10;;
2522;SDS011;1272;53.332;9.860;2023-10-08T00:39:14;1.37;;;1.23;;
2522;SDS011;1272;53.332;9.860;2023-10-08T00:41:47;1.97;;;1.60;;
2522;SDS011;1272;53.332;9.860;2023-10-08T00:44:14;3.37;;;1.70;;
2522;SDS011;1272;53.332;9.860;2023-10-08T00:46:54;2.30;;;2.20;;
2522;SDS011;1272;53.332;9.860;2023-10-08T00:49:26;2.47;;;1.83;;
2522;SDS011;1272;53.332;9.860;2023-10-08T00:52:08;3.80;;;1.50;;
2522;SDS011;1272;53.332;9.860;2023-10-08T00:54:36;2.33;;;2.13;;
2522;SDS011;1272;53.332;9.860;2023-10-08T00:57:26;4.20;;;1.77;;
2522;SDS011;1272;53.332;9.860;2023-10-08T00:59:53;8.30;;;2.27;;
2522;SDS011;1272;53.332;9.860;2023-10-08T01:02:25;6.13;;;2.00;;
2522;SDS011;1272;53.332;9.860;2023-10-08T01:04:56;2.43;;;1.90;;
2522;SDS011;1272;53.332;9.860;2023-10-08T01:07:22;1.63;;;1.53;;
2522;SDS011;1272;53.332;9.860;2023-10-08T01:09:50;3.70;;;1.90;;
2522;SDS011;1272;53.332;9.860;2023-10-08T01:12:23;2.93;;;2.23;;
2522;SDS011;1272;53.332;9.860;2023-10-08T01:14:58;4.90;;;2.37;;
2522;SDS011;1272;53.332;9.860;2023-10-08T01:17:50;2.87;;;2.00;;
2522;SDS011;1272;53.332;9.860;2023-10-08T01:20:22;4.97;;;2.50;;
2522;SDS011;1272;53.332;9.860;2023-10-08T01:23:08;3.37;;;2.70;;
2522;SDS011;1272;53.332;9.860;2023-10-08T01:25:39;2.40;;;2.20;;
2522;SDS011;1272;53.332;9.860;2023-10-08T01:28:07;2.40;;;2.30;;
2522;SDS011;1272;53.332;9.860;2023-10-08T01:30:45;4.17;;;3.07;;
2522;SDS011;1272;53.332;9.860;2023-10-08T01:33:12;4.33;;;2.50;;
2522;SDS011;1272;53.332;9.860;2023-10-08T01:35:40;9.33;;;3.33;;
2522;SDS011;1272;53.332;9.860;2023-10-08T01:38:07;5.33;;;2.50;;
2522;SDS011;1272;53.332;9.860;2023-10-08T01:40:38;2.40;;;1.50;;
2522;SDS011;1272;53.332;9.860;2023-10-08T01:43:04;5.90;;;2.60;;
2522;SDS011;1272;53.332;9.860;2023-10-08T01:45:30;1.87;;;1.60;;
2522;SDS011;1272;53.332;9.860;2023-10-08T01:47:57;2.50;;;2.30;;
2522;SDS011;1272;53.332;9.860;2023-10-08T01:50:23;3.63;;;2.47;;
2522;SDS011;1272;53.332;9.860;2023-10-08T01:52:54;2.70;;;2.37;;
2522;SDS011;1272;53.332;9.860;2023-10-08T01:55:20;4.40;;;2.40;;
2522;SDS011;1272;53.332;9.860;2023-10-08T01:57:48;4.10;;;2.57;;
2522;SDS011;1272;53.332;9.860;2023-10-08T02:00:16;4.30;;;2.77;;
2522;SDS011;1272;53.332;9.860;2023-10-08T02:02:47;6.40;;;2.30;;
2522;SDS011;1272;53.332;9.860;2023-10-08T02:05:16;3.63;;;2.10;;
2522;SDS011;1272;53.332;9.860;2023-10-08T02:07:46;2.60;;;2.40;;
2522;SDS011;1272;53.332;9.860;2023-10-08T02:10:12;2.30;;;2.07;;
2522;SDS011;1272;53.332;9.860;2023-10-08T02:12:41;2.60;;;2.17;;
2522;SDS011;1272;53.332;9.860;2023-10-08T02:15:07;2.30;;;2.10;;
2522;SDS011;1272;53.332;9.860;2023-10-08T02:17:33;2.77;;;2.13;;
2522;SDS011;1272;53.332;9.860;2023-10-08T02:20:00;2.47;;;2.17;;
2522;SDS011;1272;53.332;9.860;2023-10-08T02:22:30;2.30;;;2.20;;
2522;SDS011;1272;53.332;9.860;2023-10-08T02:24:56;2.43;;;2.23;;
2522;SDS011;1272;53.332;9.860;2023-10-08T02:27:26;2.80;;;2.43;;
2522;SDS011;1272;53.332;9.860;2023-10-08T02:29:52;2.87;;;2.60;;
2522;SDS011;1272;53.332;9.860;2023-10-08T02:32:19;2.80;;;2.10;;
2522;SDS011;1272;53.332;9.860;2023-10-08T02:34:47;4.70;;;2.30;;
2522;SDS011;1272;53.332;9.860;2023-10-08T02:37:13;2.50;;;2.30;;
2522;SDS011;1272;53.332;9.860;2023-10-08T02:39:40;5.30;;;2.67;;
2522;SDS011;1272;53.332;9.860;2023-10-08T02:42:06;3.47;;;3.17;;
2522;SDS011;1272;53.332;9.860;2023-10-08T02:44:35;4.60;;;3.30;;
2522;SDS011;1272;53.332;9.860;2023-10-08T02:47:07;2.40;;;2.20;;
2522;SDS011;1272;53.332;9.860;2023-10-08T02:49:37;5.60;;;2.27;;
2522;SDS011;1272;53.332;9.860;2023-10-08T02:52:06;2.20;;;2.00;;
2522;SDS011;1272;53.332;9.860;2023-10-08T02:54:34;2.90;;;2.70;;
2522;SDS011;1272;53.332;9.860;2023-10-08T02:57:01;2.43;;;2.23;;
2522;SDS011;1272;53.332;9.860;2023-10-08T02:59:35;2.70;;;2.57;;
2522;SDS011;1272;53.332;9.860;2023-10-08T03:02:08;4.90;;;2.40;;
2522;SDS011;1272;53.332;9.860;2023-10-08T03:04:44;3.93;;;3.07;;
2522;SDS011;1272;53.332;9.860;2023-10-08T03:07:11;5.50;;;3.60;;
2522;SDS011;1272;53.332;9.860;2023-10-08T03:09:50;5.53;;;3.20;;
2522;SDS011;1272;53.332;9.860;2023-10-08T03:12:28;2.93;;;2.70;;
2522;SDS011;1272;53.332;9.860;2023-10-08T03:14:57;4.53;;;3.10;;
2522;SDS011;1272;53.332;9.860;2023-10-08T03:17:38;4.37;;;3.17;;
2522;SDS011;1272;53.332;9.860;2023-10-08T03:20:14;2.60;;;2.17;;
2522;SDS011;1272;53.332;9.860;2023-10-08T03:22:54;3.50;;;3.30;;
2522;SDS011;1272;53.332;9.860;2023-10-08T03:25:23;3.00;;;2.80;;
2522;SDS011;1272;53.332;9.860;2023-10-08T03:27:49;7.10;;;2.83;;
2522;SDS011;1272;53.332;9.860;2023-10-08T03:30:15;5.00;;;3.30;;
2522;SDS011;1272;53.332;9.860;2023-10-08T03:32:44;2.30;;;2.10;;
2522;SDS011;1272;53.332;9.860;2023-10-08T03:35:10;5.20;;;3.00;;
2522;SDS011;1272;53.332;9.860;2023-10-08T03:37:38;3.60;;;3.30;;
2522;SDS011;1272;53.332;9.860;2023-10-08T03:40:15;6.40;;;3.40;;
2522;SDS011;1272;53.332;9.860;2023-10-08T03:43:08;4.97;;;3.00;;
2522;SDS011;1272;53.332;9.860;2023-10-08T03:45:44;3.67;;;3.30;;
2522;SDS011;1272;53.332;9.860;2023-10-08T03:48:16;4.40;;;2.90;;
2522;SDS011;1272;53.332;9.860;2023-10-08T03:50:42;3.63;;;3.30;;
2522;SDS011;1272;53.332;9.860;2023-10-08T03:53:08;7.67;;;3.00;;
2522;SDS011;1272;53.332;9.860;2023-10-08T03:55:38;4.93;;;2.80;;
2522;SDS011;1272;53.332;9.860;2023-10-08T03:58:07;3.30;;;2.67;;
2522;SDS011;1272;53.332;9.860;2023-10-08T04:00:53;3.27;;;2.97;;
2522;SDS011;1272;53.332;9.860;2023-10-08T04:03:33;4.10;;;2.57;;
2522;SDS011;1272;53.332;9.860;2023-10-08T04:06:20;2.20;;;2.10;;
2522;SDS011;1272;53.332;9.860;2023-10-08T04:08:54;2.70;;;2.50;;
2522;SDS011;1272;53.332;9.860;2023-10-08T04:11:36;2.50;;;2.40;;
2522;SDS011;1272;53.332;9.860;2023-10-08T04:14:17;3.13;;;2.60;;
2522;SDS011;1272;53.332;9.860;2023-10-08T04:16:44;2.57;;;2.37;;
2522;SDS011;1272;53.332;9.860;2023-10-08T04:19:10;2.40;;;2.20;;
2522;SDS011;1272;53.332;9.860;2023-10-08T04:21:37;5.13;;;3.63;;
2522;SDS011;1272;53.332;9.860;2023-10-08T04:24:07;3.17;;;2.20;;
2522;SDS011;1272;53.332;9.860;2023-10-08T04:26:36;2.60;;;2.40;;
2522;SDS011;1272;53.332;9.860;2023-10-08T04:29:05;2.73;;;2.53;;
2522;SDS011;1272;53.332;9.860;2023-10-08T04:31:33;4.33;;;2.93;;
2522;SDS011;1272;53.332;9.860;2023-10-08T04:34:03;5.03;;;2.10;;
2522;SDS011;1272;53.332;9.860;2023-10-08T04:36:44;3.17;;;2.27;;
2522;SDS011;1272;53.332;9.860;2023-10-08T04:39:10;2.70;;;2.10;;
2522;SDS011;1272;53.332;9.860;2023-10-08T04:41:41;2.37;;;2.23;;
2522;SDS011;1272;53.332;9.860;2023-10-08T04:44:10;4.53;;;4.17;;
2522;SDS011;1272;53.332;9.860;2023-10-08T04:46:44;3.07;;;2.50;;
2522;SDS011;1272;53.332;9.860;2023-10-08T04:49:16;2.70;;;2.50;;
2522;SDS011;1272;53.332;9.860;2023-10-08T04:51:55;4.90;;;3.07;;
2522;SDS011;1272;53.332;9.860;2023-10-08T04:54:24;2.63;;;2.37;;
2522;SDS011;1272;53.332;9.860;2023-10-08T04:56:59;2.30;;;2.20;;
2522;SDS011;1272;53.332;9.860;2023-10-08T04:59:29;2.20;;;1.97;;
2522;SDS011;1272;53.332;9.860;2023-10-08T05:01:59;2.10;;;1.70;;
2522;SDS011;1272;53.332;9.860;2023-10-08T05:04:41;2.37;;;2.20;;
2522;SDS011;1272;53.332;9.860;2023-10-08T05:07:25;2.67;;;2.20;;
2522;SDS011;1272;53.332;9.860;2023-10-08T05:10:09;2.47;;;2.23;;
2522;SDS011;1272;53.332;9.860;2023-10-08T05:12:53;5.47;;;2.43;;
2522;SDS011;1272;53.332;9.860;2023-10-08T05:15:28;2.20;;;2.10;;
2522;SDS011;1272;53.332;9.860;2023-10-08T05:18:20;4.07;;;2.63;;
2522;SDS011;1272;53.332;9.860;2023-10-08T05:20:51;2.40;;;1.70;;
2522;SDS011;1272;53.332;9.860;2023-10-08T05:23:24;3.30;;;2.10;;
2522;SDS011;1272;53.332;9.860;2023-10-08T05:25:53;2.47;;;2.30;;
2522;SDS011;1272;53.332;9.860;2023-10-08T05:28:33;2.50;;;2.30;;
2522;SDS011;1272;53.332;9.860;2023-10-08T05:31:22;2.50;;;2.30;;
2522;SDS011;1272;53.332;9.860;2023-10-08T05:34:11;2.60;;;2.40;;
2522;SDS011;1272;53.332;9.860;2023-10-08T05:36:43;2.53;;;2.33;;
2522;SDS011;1272;53.332;9.860;2023-10-08T05:39:35;2.27;;;2.17;;
2522;SDS011;1272;53.332;9.860;2023-10-08T05:42:04;2.13;;;2.03;;
2522;SDS011;1272;53.332;9.860;2023-10-08T05:44:45;1.83;;;1.73;;
2522;SDS011;1272;53.332;9.860;2023-10-08T05:47:15;2.53;;;1.90;;
2522;SDS011;1272;53.332;9.860;2023-10-08T05:49:56;3.53;;;2.50;;
2522;SDS011;1272;53.332;9.860;2023-10-08T05:52:41;1.60;;;1.50;;
2522;SDS011;1272;53.332;9.860;2023-10-08T05:55:23;2.43;;;1.60;;
2522;SDS011;1272;53.332;9.860;2023-10-08T06:00:45;3.70;;;2.20;;
2522;SDS011;1272;53.332;9.860;2023-10-08T06:03:31;2.60;;;1.70;;
2522;SDS011;1272;53.332;9.860;2023-10-08T06:06:04;2.90;;;2.10;;
2522;SDS011;1272;53.332;9.860;2023-10-08T06:08:40;4.40;;;1.87;;
2522;SDS011;1272;53.332;9.860;2023-10-08T06:11:24;5.07;;;2.20;;
2522;SDS011;1272;53.332;9.860;2023-10-08T06:14:22;2.27;;;1.70;;
2522;SDS011;1272;53.332;9.860;2023-10-08T06:17:14;2.10;;;1.50;;
2522;SDS011;1272;53.332;9.860;2023-10-08T06:19:51;1.47;;;1.37;;
2522;SDS011;1272;53.332;9.860;2023-10-08T06:22:18;3.00;;;1.90;;
2522;SDS011;1272;53.332;9.860;2023-10-08T06:24:45;1.40;;;1.40;;
2522;SDS011;1272;53.332;9.860;2023-10-08T06:27:11;1.50;;;1.40;;
2522;SDS011;1272;53.332;9.860;2023-10-08T06:29:42;1.40;;;1.30;;
2522;SDS011;1272;53.332;9.860;2023-10-08T06:32:09;2.30;;;1.90;;
2522;SDS011;1272;53.332;9.860;2023-10-08T06:34:37;1.93;;;1.80;;
2522;SDS011;1272;53.332;9.860;2023-10-08T06:37:05;1.97;;;1.87;;
2522;SDS011;1272;53.332;9.860;2023-10-08T06:39:33;1.53;;;1.43;;
2522;SDS011;1272;53.332;9.860;2023-10-08T06:42:12;1.73;;;1.63;;
2522;SDS011;1272;53.332;9.860;2023-10-08T06:44:42;2.70;;;1.80;;
2522;SDS011;1272;53.332;9.860;2023-10-08T06:47:11;2.10;;;1.47;;
2522;SDS011;1272;53.332;9.860;2023-10-08T06:49:40;4.10;;;1.40;;
2522;SDS011;1272;53.332;9.860;2023-10-08T06:52:08;2.03;;;1.70;;
2522;SDS011;1272;53.332;9.860;2023-10-08T06:54:36;3.23;;;1.57;;
2522;SDS011;1272;53.332;9.860;2023-10-08T06:57:02;4.30;;;2.03;;
2522;SDS011;1272;53.332;9.860;2023-10-08T06:59:28;1.83;;;1.73;;
2522;SDS011;1272;53.332;9.860;2023-10-08T07:01:56;1.80;;;1.43;;
2522;SDS011;1272;53.332;9.860;2023-10-08T07:04:24;1.83;;;1.60;;
2522;SDS011;1272;53.332;9.860;2023-10-08T07:06:50;2.43;;;1.60;;
2522;SDS011;1272;53.332;9.860;2023-10-08T07:09:16;2.50;;;2.13;;
2522;SDS011;1272;53.332;9.860;2023-10-08T07:11:57;2.53;;;1.37;;
2522;SDS011;1272;53.332;9.860;2023-10-08T07:14:26;2.20;;;1.60;;
2522;SDS011;1272;53.332;9.860;2023-10-08T07:16:56;1.23;;;1.17;;
2522;SDS011;1272;53.332;9.860;2023-10-08T07:19:29;1.70;;;1.43;;
2522;SDS011;1272;53.332;9.860;2023-10-08T07:22:02;1.50;;;1.10;;
2522;SDS011;1272;53.332;9.860;2023-10-08T07:24:29;3.13;;;1.90;;
2522;SDS011;1272;53.332;9.860;2023-10-08T07:27:00;1.47;;;1.10;;
2522;SDS011;1272;53.332;9.860;2023-10-08T07:29:30;1.43;;;1.23;;
2522;SDS011;1272;53.332;9.860;2023-10-08T07:31:57;3.90;;;1.90;;
2522;SDS011;1272;53.332;9.860;2023-10-08T07:34:34;1.97;;;1.10;;
2522;SDS011;1272;53.332;9.860;2023-10-08T07:37:01;2.20;;;1.27;;
2522;SDS011;1272;53.332;9.860;2023-10-08T07:39:27;1.87;;;1.60;;
2522;SDS011;1272;53.332;9.860;2023-10-08T07:42:01;3.00;;;1.60;;
2522;SDS011;1272;53.332;9.860;2023-10-08T07:44:33;2.40;;;1.00;;
2522;SDS011;1272;53.332;9.860;2023-10-08T07:47:03;3.63;;;2.00;;
2522;SDS011;1272;53.332;9.860;2023-10-08T07:49:34;1.50;;;1.40;;
2522;SDS011;1272;53.332;9.860;2023-10-08T07:52:01;1.73;;;1.60;;
2522;SDS011;1272;53.332;9.860;2023-10-08T07:54:26;1.37;;;1.20;;
2522;SDS011;1272;53.332;9.860;2023-10-08T07:56:59;1.53;;;1.33;;
2522;SDS011;1272;53.332;9.860;2023-10-08T07:59:39;1.67;;;1.03;;
2522;SDS011;1272;53.332;9.860;2023-10-08T08:02:06;1.47;;;1.20;;
2522;SDS011;1272;53.332;9.860;2023-10-08T08:04:38;1.70;;;1.40;;
2522;SDS011;1272;53.332;9.860;2023-10-08T08:07:11;1.50;;;1.10;;
2522;SDS011;1272;53.332;9.860;2023-10-08T08:09:48;1.37;;;1.27;;
2522;SDS011;1272;53.332;9.860;2023-10-08T08:12:20;2.33;;;1.27;;
2522;SDS011;1272;53.332;9.860;2023-10-08T08:14:46;1.10;;;1.00;;
2522;SDS011;1272;53.332;9.860;2023-10-08T08:17:13;2.10;;;1.00;;
2522;SDS011;1272;53.332;9.860;2023-10-08T08:19:40;2.20;;;1.67;;
2522;SDS011;1272;53.332;9.860;2023-10-08T08:22:10;1.73;;;1.30;;
2522;SDS011;1272;53.332;9.860;2023-10-08T08:24:45;0.87;;;0.73;;
2522;SDS011;1272;53.332;9.860;2023-10-08T08:27:20;1.93;;;1.00;;
2522;SDS011;1272;53.332;9.860;2023-10-08T08:29:56;1.33;;;1.10;;
2522;SDS011;1272;53.332;9.860;2023-10-08T08:32:35;1.73;;;0.90;;
2522;SDS011;1272;53.332;9.860;2023-10-08T08:35:10;2.97;;;1.00;;
2522;SDS011;1272;53.332;9.860;2023-10-08T08:37:37;1.30;;;1.20;;
2522;SDS011;1272;53.332;9.860;2023-10-08T08:40:04;2.57;;;0.97;;
2522;SDS011;1272;53.332;9.860;2023-10-08T08:42:50;2.67;;;1.00;;
2522;SDS011;1272;53.332;9.860;2023-10-08T08:45:22;1.90;;;1.00;;
2522;SDS011;1272;53.332;9.860;2023-10-08T08:47:58;2.30;;;1.10;;
2522;SDS011;1272;53.332;9.860;2023-10-08T08:50:24;2.83;;;1.17;;
2522;SDS011;1272;53.332;9.860;2023-10-08T08:52:52;1.20;;;1.00;;
2522;SDS011;1272;53.332;9.860;2023-10-08T08:55:18;4.13;;;1.00;;
2522;SDS011;1272;53.332;9.860;2023-10-08T08:57:49;2.53;;;1.17;;
2522;SDS011;1272;53.332;9.860;2023-10-08T09:00:19;2.13;;;1.00;;
2522;SDS011;1272;53.332;9.860;2023-10-08T09:02:45;0.93;;;0.80;;
2522;SDS011;1272;53.332;9.860;2023-10-08T09:05:12;7.13;;;1.20;;
2522;SDS011;1272;53.332;9.860;2023-10-08T09:08:01;2.10;;;1.33;;
2522;SDS011;1272;53.332;9.860;2023-10-08T09:10:29;0.80;;;0.80;;
2522;SDS011;1272;53.332;9.860;2023-10-08T09:13:02;1.10;;;1.00;;
2522;SDS011;1272;53.332;9.860;2023-10-08T09:15:29;7.40;;;0.70;;
2522;SDS011;1272;53.332;9.860;2023-10-08T09:17:55;1.90;;;0.83;;
2522;SDS011;1272;53.332;9.860;2023-10-08T09:20:24;2.70;;;1.10;;
2522;SDS011;1272;53.332;9.860;2023-10-08T09:25:36;1.63;;;0.97;;
2522;SDS011;1272;53.332;9.860;2023-10-08T09:28:03;0.97;;;0.97;;
2522;SDS011;1272;53.332;9.860;2023-10-08T09:30:32;0.77;;;0.77;;
2522;SDS011;1272;53.332;9.860;2023-10-08T09:33:04;1.17;;;0.90;;
2522;SDS011;1272;53.332;9.860;2023-10-08T09:35:31;2.00;;;1.00;;
2522;SDS011;1272;53.332;9.860;2023-10-08T09:37:58;0.83;;;0.83;;
2522;SDS011;1272;53.332;9.860;2023-10-08T09:40:28;1.47;;;1.10;;
2522;SDS011;1272;53.332;9.860;2023-10-08T09:42:54;1.00;;;0.90;;
2522;SDS011;1272;53.332;9.860;2023-10-08T09:45:21;1.13;;;0.90;;
2522;SDS011;1272;53.332;9.860;2023-10-08T09:47:52;5.00;;;1.03;;
2522;SDS011;1272;53.332;9.860;2023-10-08T09:50:29;1.83;;;1.20;;
2522;SDS011;1272;53.332;9.860;2023-10-08T09:53:01;3.87;;;1.37;;
2522;SDS011;1272;53.332;9.860;2023-10-08T09:55:40;5.20;;;1.60;;
2522;SDS011;1272;53.332;9.860;2023-10-08T09:58:09;0.80;;;0.80;;
2522;SDS011;1272;53.332;9.860;2023-10-08T10:00:39;1.33;;;0.80;;
2522;SDS011;1272;53.332;9.860;2023-10-08T10:03:07;1.00;;;0.90;;
2522;SDS011;1272;53.332;9.860;2023-10-08T10:05:34;0.83;;;0.77;;
2522;SDS011;1272;53.332;9.860;2023-10-08T10:08:03;2.17;;;1.03;;
2522;SDS011;1272;53.332;9.860;2023-10-08T10:10:35;0.60;;;0.60;;
2522;SDS011;1272;53.332;9.860;2023-10-08T10:13:11;1.47;;;1.03;;
2522;SDS011;1272;53.332;9.860;2023-10-08T10:15:37;0.93;;;0.90;;
2522;SDS011;1272;53.332;9.860;2023-10-08T10:18:12;2.83;;;1.27;;
2522;SDS011;1272;53.332;9.860;2023-10-08T10:20:57;2.50;;;0.90;;
2522;SDS011;1272;53.332;9.860;2023-10-08T10:23:49;4.60;;;1.20;;
2522;SDS011;1272;53.332;9.860;2023-10-08T10:31:37;1.67;;;0.87;;
2522;SDS011;1272;53.332;9.860;2023-10-08T10:34:07;2.23;;;1.50;;
2522;SDS011;1272;53.332;9.860;2023-10-08T10:36:36;1.00;;;0.87;;
2522;SDS011;1272;53.332;9.860;2023-10-08T10:39:04;2.70;;;1.10;;
2522;SDS011;1272;53.332;9.860;2023-10-08T10:41:51;1.10;;;0.80;;
2522;SDS011;1272;53.332;9.860;2023-10-08T10:44:22;1.03;;;0.93;;
2522;SDS011;1272;53.332;9.860;2023-10-08T10:46:49;2.00;;;1.03;;
2522;SDS011;1272;53.332;9.860;2023-10-08T10:49:37;1.57;;;1.47;;
2522;SDS011;1272;53.332;9.860;2023-10-08T10:52:23;1.07;;;0.97;;
2522;SDS011;1272;53.332;9.860;2023-10-08T10:55:01;2.00;;;0.80;;
2522;SDS011;1272;53.332;9.860;2023-10-08T10:57:57;1.07;;;1.00;;
2522;SDS011;1272;53.332;9.860;2023-10-08T11:00:36;4.57;;;1.33;;
2522;SDS011;1272;53.332;9.860;2023-10-08T11:03:03;0.80;;;0.77;;
2522;SDS011;1272;53.332;9.860;2023-10-08T11:05:35;0.87;;;0.73;;
2522;SDS011;1272;53.332;9.860;2023-10-08T11:08:03;2.00;;;0.90;;
2522;SDS011;1272;53.332;9.860;2023-10-08T11:10:38;1.07;;;0.97;;
2522;SDS011;1272;53.332;9.860;2023-10-08T11:13:07;2.17;;;0.87;;
2522;SDS011;1272;53.332;9.860;2023-10-08T11:15:42;1.20;;;1.07;;
2522;SDS011;1272;53.332;9.860;2023-10-08T11:18:14;1.10;;;1.03;;
2522;SDS011;1272;53.332;9.860;2023-10-08T11:20:44;7.03;;;4.10;;
2522;SDS011;1272;53.332;9.860;2023-10-08T11:26:01;1.97;;;0.90;;
2522;SDS011;1272;53.332;9.860;2023-10-08T11:28:30;3.60;;;1.00;;
2522;SDS011;1272;53.332;9.860;2023-10-08T11:30:59;4.00;;;1.60;;
2522;SDS011;1272;53.332;9.860;2023-10-08T11:33:46;1.20;;;0.70;;
2522;SDS011;1272;53.332;9.860;2023-10-08T11:36:19;2.63;;;1.20;;
2522;SDS011;1272;53.332;9.860;2023-10-08T11:38:53;2.70;;;1.80;;
2522;SDS011;1272;53.332;9.860;2023-10-08T11:41:25;4.23;;;3.30;;
2522;SDS011;1272;53.332;9.860;2023-10-08T11:43:56;2.00;;;1.80;;
2522;SDS011;1272;53.332;9.860;2023-10-08T11:46:27;1.57;;;1.33;;
2522;SDS011;1272;53.332;9.860;2023-10-08T11:49:03;2.37;;;1.10;;
2522;SDS011;1272;53.332;9.860;2023-10-08T11:51:36;2.80;;;1.20;;
2522;SDS011;1272;53.332;9.860;2023-10-08T11:54:04;1.60;;;0.80;;
2522;SDS011;1272;53.332;9.860;2023-10-08T11:56:31;1.93;;;1.03;;
2522;SDS011;1272;53.332;9.860;2023-10-08T11:58:58;1.73;;;0.90;;
2522;SDS011;1272;53.332;9.860;2023-10-08T12:01:26;1.33;;;1.20;;
2522;SDS011;1272;53.332;9.860;2023-10-08T12:03:53;1.43;;;1.00;;
2522;SDS011;1272;53.332;9.860;2023-10-08T12:06:24;0.60;;;0.60;;
2522;SDS011;1272;53.332;9.860;2023-10-08T12:08:54;0.80;;;0.77;;
2522;SDS011;1272;53.332;9.860;2023-10-08T12:11:23;1.10;;;0.73;;
2522;SDS011;1272;53.332;9.860;2023-10-08T12:13:56;1.33;;;1.23;;
2522;SDS011;1272;53.332;9.860;2023-10-08T12:16:24;1.33;;;1.23;;
2522;SDS011;1272;53.332;9.860;2023-10-08T12:18:54;1.57;;;1.00;;
2522;SDS011;1272;53.332;9.860;2023-10-08T12:21:27;3.90;;;1.20;;
2522;SDS011;1272;53.332;9.860;2023-10-08T12:23:57;0.90;;;0.70;;
2522;SDS011;1272;53.332;9.860;2023-10-08T12:26:23;1.57;;;1.20;;
2522;SDS011;1272;53.332;9.860;2023-10-08T12:28:49;0.60;;;0.60;;
2522;SDS011;1272;53.332;9.860;2023-10-08T12:31:16;0.67;;;0.63;;
2522;SDS011;1272;53.332;9.860;2023-10-08T12:33:46;0.77;;;0.77;;
2522;SDS011;1272;53.332;9.860;2023-10-08T12:36:12;3.23;;;1.03;;
2522;SDS011;1272;53.332;9.860;2023-10-08T12:38:41;5.43;;;0.87;;
2522;SDS011;1272;53.332;9.860;2023-10-08T12:41:11;1.50;;;0.80;;
2522;SDS011;1272;53.332;9.860;2023-10-08T12:43:37;2.33;;;1.00;;
2522;SDS011;1272;53.332;9.860;2023-10-08T12:46:13;2.37;;;1.33;;
2522;SDS011;1272;53.332;9.860;2023-10-08T12:48:49;2.17;;;1.07;;
2522;SDS011;1272;53.332;9.860;2023-10-08T12:51:23;0.80;;;0.70;;
2522;SDS011;1272;53.332;9.860;2023-10-08T12:53:50;1.60;;;1.30;;
2522;SDS011;1272;53.332;9.860;2023-10-08T12:56:23;1.30;;;1.00;;
2522;SDS011;1272;53.332;9.860;2023-10-08T12:58:57;1.83;;;1.10;;
2522;SDS011;1272;53.332;9.860;2023-10-08T13:01:23;0.87;;;0.87;;
2522;SDS011;1272;53.332;9.860;2023-10-08T13:03:53;2.00;;;1.13;;
2522;SDS011;1272;53.332;9.860;2023-10-08T13:06:25;2.03;;;0.90;;
2522;SDS011;1272;53.332;9.860;2023-10-08T13:08:54;1.30;;;1.20;;
2522;SDS011;1272;53.332;9.860;2023-10-08T13:11:21;1.00;;;0.90;;
2522;SDS011;1272;53.332;9.860;2023-10-08T13:13:51;0.87;;;0.77;;
2522;SDS011;1272;53.332;9.860;2023-10-08T13:16:21;1.57;;;1.13;;
2522;SDS011;1272;53.332;9.860;2023-10-08T13:18:48;0.67;;;0.67;;
2522;SDS011;1272;53.332;9.860;2023-10-08T13:21:15;0.90;;;0.80;;
2522;SDS011;1272;53.332;9.860;2023-10-08T13:23:41;0.70;;;0.70;;
2522;SDS011;1272;53.332;9.860;2023-10-08T13:26:07;1.00;;;0.73;;
2522;SDS011;1272;53.332;9.860;2023-10-08T13:28:34;1.23;;;0.80;;
2522;SDS011;1272;53.332;9.860;2023-10-08T13:31:01;5.20;;;1.40;;
2522;SDS011;1272;53.332;9.860;2023-10-08T13:33:35;1.30;;;0.90;;
2522;SDS011;1272;53.332;9.860;2023-10-08T13:36:04;1.00;;;0.83;;
2522;SDS011;1272;53.332;9.860;2023-10-08T13:38:34;2.23;;;1.37;;
2522;SDS011;1272;53.332;9.860;2023-10-08T13:41:03;2.10;;;1.00;;
2522;SDS011;1272;53.332;9.860;2023-10-08T13:43:32;1.20;;;1.07;;
2522;SDS011;1272;53.332;9.860;2023-10-08T13:46:05;1.03;;;1.00;;
2522;SDS011;1272;53.332;9.860;2023-10-08T13:48:34;1.27;;;1.17;;
2522;SDS011;1272;53.332;9.860;2023-10-08T13:51:01;1.83;;;1.73;;
2522;SDS011;1272;53.332;9.860;2023-10-08T13:53:29;2.13;;;1.10;;
2522;SDS011;1272;53.332;9.860;2023-10-08T13:55:58;2.10;;;1.10;;
2522;SDS011;1272;53.332;9.860;2023-10-08T13:58:28;1.13;;;0.80;;
2522;SDS011;1272;53.332;9.860;2023-10-08T14:00:55;1.07;;;0.80;;
2522;SDS011;1272;53.332;9.860;2023-10-08T14:03:29;0.80;;;0.80;;
2522;SDS011;1272;53.332;9.860;2023-10-08T14:05:58;1.20;;;1.00;;
2522;SDS011;1272;53.332;9.860;2023-10-08T14:08:29;1.50;;;1.03;;
2522;SDS011;1272;53.332;9.860;2023-10-08T14:10:56;3.03;;;1.27;;
2522;SDS011;1272;53.332;9.860;2023-10-08T14:13:28;1.67;;;1.33;;
2522;SDS011;1272;53.332;9.860;2023-10-08T14:15:56;0.97;;;0.77;;
2522;SDS011;1272;53.332;9.860;2023-10-08T14:18:30;1.00;;;0.80;;
2522;SDS011;1272;53.332;9.860;2023-10-08T14:21:05;1.33;;;1.27;;
2522;SDS011;1272;53.332;9.860;2023-10-08T14:23:35;1.50;;;0.93;;
2522;SDS011;1272;53.332;9.860;2023-10-08T14:26:07;1.30;;;0.80;;
2522;SDS011;1272;53.332;9.860;2023-10-08T14:28:34;1.37;;;0.83;;
2522;SDS011;1272;53.332;9.860;2023-10-08T14:31:08;1.23;;;0.90;;
2522;SDS011;1272;53.332;9.860;2023-10-08T14:33:34;1.00;;;0.90;;
2522;SDS011;1272;53.332;9.860;2023-10-08T14:36:08;1.07;;;0.90;;
2522;SDS011;1272;53.332;9.860;2023-10-08T14:38:53;1.00;;;0.83;;
2522;SDS011;1272;53.332;9.860;2023-10-08T14:41:37;1.17;;;0.80;;
2522;SDS011;1272;53.332;9.860;2023-10-08T14:44:21;1.63;;;1.17;;
2522;SDS011;1272;53.332;9.860;2023-10-08T14:46:48;1.30;;;1.20;;
2522;SDS011;1272;53.332;9.860;2023-10-08T14:49:15;1.50;;;1.20;;
2522;SDS011;1272;53.332;9.860;2023-10-08T14:51:41;1.53;;;1.13;;
2522;SDS011;1272;53.332;9.860;2023-10-08T14:54:08;1.10;;;1.00;;
2522;SDS011;1272;53.332;9.860;2023-10-08T14:56:37;2.83;;;1.07;;
2522;SDS011;1272;53.332;9.860;2023-10-08T14:59:04;0.80;;;0.80;;
2522;SDS011;1272;53.332;9.860;2023-10-08T15:01:30;2.97;;;1.10;;
2522;SDS011;1272;53.332;9.860;2023-10-08T15:03:58;2.20;;;1.00;;
2522;SDS011;1272;53.332;9.860;2023-10-08T15:06:28;1.63;;;1.00;;
2522;SDS011;1272;53.332;9.860;2023-10-08T15:08:58;1.10;;;0.93;;
2522;SDS011;1272;53.332;9.860;2023-10-08T15:11:24;1.10;;;1.00;;
2522;SDS011;1272;53.332;9.860;2023-10-08T15:13:55;0.80;;;0.80;;
2522;SDS011;1272;53.332;9.860;2023-10-08T15:16:22;1.43;;;1.00;;
2522;SDS011;1272;53.332;9.860;2023-10-08T15:18:52;2.00;;;0.90;;
2522;SDS011;1272;53.332;9.860;2023-10-08T15:21:18;3.77;;;1.30;;
2522;SDS011;1272;53.332;9.860;2023-10-08T15:23:46;1.57;;;1.47;;
2522;SDS011;1272;53.332;9.860;2023-10-08T15:26:12;1.00;;;1.00;;
2522;SDS011;1272;53.332;9.860;2023-10-08T15:28:38;2.07;;;1.23;;
2522;SDS011;1272;53.332;9.860;2023-10-08T15:31:04;1.30;;;1.20;;
2522;SDS011;1272;53.332;9.860;2023-10-08T15:33:31;3.40;;;1.43;;
2522;SDS011;1272;53.332;9.860;2023-10-08T15:35:57;1.90;;;1.40;;
2522;SDS011;1272;53.332;9.860;2023-10-08T15:38:25;1.63;;;0.97;;
2522;SDS011;1272;53.332;9.860;2023-10-08T15:40:51;2.73;;;1.50;;
2522;SDS011;1272;53.332;9.860;2023-10-08T15:43:16;2.20;;;1.10;;
2522;SDS011;1272;53.332;9.860;2023-10-08T15:45:43;1.10;;;0.90;;
2522;SDS011;1272;53.332;9.860;2023-10-08T15:48:10;3.07;;;1.30;;
2522;SDS011;1272;53.332;9.860;2023-10-08T15:50:36;1.00;;;0.90;;
2522;SDS011;1272;53.332;9.860;2023-10-08T15:53:01;1.87;;;1.10;;
2522;SDS011;1272;53.332;9.860;2023-10-08T15:55:27;2.13;;;1.20;;
2522;SDS011;1272;53.332;9.860;2023-10-08T15:57:53;1.80;;;1.70;;